sensor_id;sensor_type;location;lat;lon;timestamp;P1;durP1;ratioP1;P2;durP2;ratioP2
801;SDS011;383;48.766;9.270;2024-03-06T00:01:53;18.35;;;8.82;;
801;SDS011;383;48.766;9.270;2024-03-06T00:04:20;14.82;;;8.05;;
801;SDS011;383;48.766;9.270;2024-03-06T00:06:48;14.90;;;9.23;;
801;SDS011;383;48.766;9.270;2024-03-06T00:09:16;16.38;;;8.35;;
801;SDS011;383;48.766;9.270;2024-03-06T00:11:44;10.18;;;7.30;;
801;SDS011;383;48.766;9.270;2024-03-06T00:14:11;15.75;;;8.40;;
801;SDS011;383;48.766;9.270;2024-03-06T00:16:39;17.63;;;7.15;;
801;SDS011;383;48.766;9.270;2024-03-06T00:19:07;13.90;;;6.68;;
801;SDS011;383;48.766;9.270;2024-03-06T00:21:34;13.00;;;7.50;;
801;SDS011;383;48.766;9.270;2024-03-06T00:24:02;11.75;;;7.68;;
801;SDS011;383;48.766;9.270;2024-03-06T00:26:29;15.73;;;7.40;;
801;SDS011;383;48.766;9.270;2024-03-06T00:28:57;12.27;;;6.13;;
801;SDS011;383;48.766;9.270;2024-03-06T00:31:24;13.70;;;6.45;;
801;SDS011;383;48.766;9.270;2024-03-06T00:33:52;10.15;;;5.80;;
801;SDS011;383;48.766;9.270;2024-03-06T00:36:20;15.07;;;7.18;;
801;SDS011;383;48.766;9.270;2024-03-06T00:38:47;13.95;;;6.50;;
801;SDS011;383;48.766;9.270;2024-03-06T00:41:14;19.60;;;6.90;;
801;SDS011;383;48.766;9.270;2024-03-06T00:43:41;14.43;;;6.20;;
801;SDS011;383;48.766;9.270;2024-03-06T00:46:08;11.27;;;6.15;;
801;SDS011;383;48.766;9.270;2024-03-06T00:48:35;12.55;;;6.25;;
801;SDS011;383;48.766;9.270;2024-03-06T00:51:05;13.07;;;7.85;;
801;SDS011;383;48.766;9.270;2024-03-06T00:53:32;10.95;;;6.05;;
801;SDS011;383;48.766;9.270;2024-03-06T00:55:59;18.42;;;7.80;;
801;SDS011;383;48.766;9.270;2024-03-06T00:58:26;13.75;;;6.03;;
801;SDS011;383;48.766;9.270;2024-03-06T01:00:52;19.25;;;6.93;;
801;SDS011;383;48.766;9.270;2024-03-06T01:03:19;11.60;;;6.95;;
801;SDS011;383;48.766;9.270;2024-03-06T01:05:46;9.85;;;5.95;;
801;SDS011;383;48.766;9.270;2024-03-06T01:08:15;14.45;;;6.70;;
801;SDS011;383;48.766;9.270;2024-03-06T01:10:42;11.40;;;5.43;;
801;SDS011;383;48.766;9.270;2024-03-06T01:13:09;16.45;;;6.53;;
801;SDS011;383;48.766;9.270;2024-03-06T01:15:36;17.33;;;7.57;;
801;SDS011;383;48.766;9.270;2024-03-06T01:18:04;12.15;;;6.70;;
801;SDS011;383;48.766;9.270;2024-03-06T01:20:31;14.02;;;6.47;;
801;SDS011;383;48.766;9.270;2024-03-06T01:22:58;12.52;;;9.25;;
801;SDS011;383;48.766;9.270;2024-03-06T01:25:26;10.82;;;6.32;;
801;SDS011;383;48.766;9.270;2024-03-06T01:27:53;11.70;;;6.15;;
801;SDS011;383;48.766;9.270;2024-03-06T01:30:20;12.00;;;6.53;;
801;SDS011;383;48.766;9.270;2024-03-06T01:32:47;10.27;;;6.80;;
801;SDS011;383;48.766;9.270;2024-03-06T01:35:14;13.23;;;6.05;;
801;SDS011;383;48.766;9.270;2024-03-06T01:37:41;12.20;;;6.75;;
801;SDS011;383;48.766;9.270;2024-03-06T01:40:09;12.68;;;6.38;;
801;SDS011;383;48.766;9.270;2024-03-06T01:42:38;9.75;;;6.28;;
801;SDS011;383;48.766;9.270;2024-03-06T01:45:06;10.52;;;5.47;;
801;SDS011;383;48.766;9.270;2024-03-06T01:47:33;9.65;;;4.85;;
801;SDS011;383;48.766;9.270;2024-03-06T01:50:01;15.43;;;6.28;;
801;SDS011;383;48.766;9.270;2024-03-06T01:52:28;12.02;;;6.40;;
801;SDS011;383;48.766;9.270;2024-03-06T01:54:55;12.75;;;6.25;;
801;SDS011;383;48.766;9.270;2024-03-06T01:57:22;14.57;;;5.95;;
801;SDS011;383;48.766;9.270;2024-03-06T01:59:51;11.93;;;6.50;;
801;SDS011;383;48.766;9.270;2024-03-06T02:02:18;12.75;;;6.10;;
801;SDS011;383;48.766;9.270;2024-03-06T02:04:45;12.95;;;6.20;;
801;SDS011;383;48.766;9.270;2024-03-06T02:07:12;11.50;;;5.47;;
801;SDS011;383;48.766;9.270;2024-03-06T02:09:41;16.55;;;5.57;;
801;SDS011;383;48.766;9.270;2024-03-06T02:12:08;10.40;;;4.60;;
801;SDS011;383;48.766;9.270;2024-03-06T02:14:35;8.45;;;5.25;;
801;SDS011;383;48.766;9.270;2024-03-06T02:17:03;10.20;;;5.43;;
801;SDS011;383;48.766;9.270;2024-03-06T02:19:40;11.20;;;6.10;;
801;SDS011;383;48.766;9.270;2024-03-06T02:22:09;12.63;;;6.35;;
801;SDS011;383;48.766;9.270;2024-03-06T02:24:36;13.50;;;5.45;;
801;SDS011;383;48.766;9.270;2024-03-06T02:27:04;14.50;;;6.40;;
801;SDS011;383;48.766;9.270;2024-03-06T02:29:31;11.80;;;5.70;;
801;SDS011;383;48.766;9.270;2024-03-06T02:31:58;13.50;;;5.70;;
801;SDS011;383;48.766;9.270;2024-03-06T02:34:27;10.93;;;6.10;;
801;SDS011;383;48.766;9.270;2024-03-06T02:36:54;9.32;;;5.45;;
801;SDS011;383;48.766;9.270;2024-03-06T02:39:23;10.35;;;6.40;;
801;SDS011;383;48.766;9.270;2024-03-06T02:41:50;8.18;;;5.53;;
801;SDS011;383;48.766;9.270;2024-03-06T02:44:17;10.30;;;5.38;;
801;SDS011;383;48.766;9.270;2024-03-06T02:46:46;9.50;;;4.88;;
801;SDS011;383;48.766;9.270;2024-03-06T02:49:14;7.28;;;5.00;;
801;SDS011;383;48.766;9.270;2024-03-06T02:51:41;13.63;;;5.28;;
801;SDS011;383;48.766;9.270;2024-03-06T02:54:08;12.27;;;5.18;;
801;SDS011;383;48.766;9.270;2024-03-06T02:56:37;11.02;;;5.30;;
801;SDS011;383;48.766;9.270;2024-03-06T02:59:04;10.55;;;6.05;;
801;SDS011;383;48.766;9.270;2024-03-06T03:01:31;8.63;;;5.07;;
801;SDS011;383;48.766;9.270;2024-03-06T03:03:58;12.60;;;5.10;;
801;SDS011;383;48.766;9.270;2024-03-06T03:06:25;8.70;;;4.38;;
801;SDS011;383;48.766;9.270;2024-03-06T03:08:54;8.85;;;4.47;;
801;SDS011;383;48.766;9.270;2024-03-06T03:11:22;9.02;;;5.03;;
801;SDS011;383;48.766;9.270;2024-03-06T03:13:50;9.80;;;5.00;;
801;SDS011;383;48.766;9.270;2024-03-06T03:16:17;10.07;;;5.15;;
801;SDS011;383;48.766;9.270;2024-03-06T03:18:45;12.93;;;4.15;;
801;SDS011;383;48.766;9.270;2024-03-06T03:21:12;9.95;;;4.65;;
801;SDS011;383;48.766;9.270;2024-03-06T03:23:39;9.10;;;4.53;;
801;SDS011;383;48.766;9.270;2024-03-06T03:26:07;8.68;;;4.70;;
801;SDS011;383;48.766;9.270;2024-03-06T03:28:37;11.23;;;4.88;;
801;SDS011;383;48.766;9.270;2024-03-06T03:31:05;6.05;;;4.10;;
801;SDS011;383;48.766;9.270;2024-03-06T03:33:33;8.98;;;4.22;;
801;SDS011;383;48.766;9.270;2024-03-06T03:36:03;11.25;;;4.72;;
801;SDS011;383;48.766;9.270;2024-03-06T03:38:30;8.18;;;4.60;;
801;SDS011;383;48.766;9.270;2024-03-06T03:40:58;9.63;;;6.28;;
801;SDS011;383;48.766;9.270;2024-03-06T03:43:25;7.38;;;4.05;;
801;SDS011;383;48.766;9.270;2024-03-06T03:45:52;10.85;;;5.18;;
801;SDS011;383;48.766;9.270;2024-03-06T03:48:20;10.57;;;5.28;;
801;SDS011;383;48.766;9.270;2024-03-06T03:50:47;13.43;;;5.50;;
801;SDS011;383;48.766;9.270;2024-03-06T03:53:14;8.85;;;4.50;;
801;SDS011;383;48.766;9.270;2024-03-06T03:55:41;6.78;;;3.85;;
801;SDS011;383;48.766;9.270;2024-03-06T03:58:08;8.15;;;4.25;;
801;SDS011;383;48.766;9.270;2024-03-06T04:00:35;7.88;;;4.65;;
801;SDS011;383;48.766;9.270;2024-03-06T04:03:03;6.13;;;4.30;;
801;SDS011;383;48.766;9.270;2024-03-06T04:05:31;7.50;;;3.95;;
801;SDS011;383;48.766;9.270;2024-03-06T04:07:58;7.20;;;4.03;;
801;SDS011;383;48.766;9.270;2024-03-06T04:10:25;7.55;;;4.10;;
801;SDS011;383;48.766;9.270;2024-03-06T04:12:52;9.30;;;4.53;;
801;SDS011;383;48.766;9.270;2024-03-06T04:15:19;11.05;;;4.18;;
801;SDS011;383;48.766;9.270;2024-03-06T04:17:47;8.85;;;4.70;;
801;SDS011;383;48.766;9.270;2024-03-06T04:20:14;9.45;;;4.25;;
801;SDS011;383;48.766;9.270;2024-03-06T04:22:42;7.72;;;4.43;;
801;SDS011;383;48.766;9.270;2024-03-06T04:25:11;9.65;;;4.28;;
801;SDS011;383;48.766;9.270;2024-03-06T04:27:38;8.35;;;5.07;;
801;SDS011;383;48.766;9.270;2024-03-06T04:30:06;9.30;;;4.05;;
801;SDS011;383;48.766;9.270;2024-03-06T04:32:33;11.95;;;4.80;;
801;SDS011;383;48.766;9.270;2024-03-06T04:35:00;8.43;;;4.57;;
801;SDS011;383;48.766;9.270;2024-03-06T04:37:27;11.02;;;4.85;;
801;SDS011;383;48.766;9.270;2024-03-06T04:39:55;7.45;;;4.80;;
801;SDS011;383;48.766;9.270;2024-03-06T04:42:22;9.32;;;5.10;;
801;SDS011;383;48.766;9.270;2024-03-06T04:44:49;8.07;;;4.60;;
801;SDS011;383;48.766;9.270;2024-03-06T04:47:16;8.40;;;4.25;;
801;SDS011;383;48.766;9.270;2024-03-06T04:49:44;10.38;;;5.13;;
801;SDS011;383;48.766;9.270;2024-03-06T04:52:11;5.35;;;4.15;;
801;SDS011;383;48.766;9.270;2024-03-06T04:54:38;11.93;;;4.78;;
801;SDS011;383;48.766;9.270;2024-03-06T04:57:06;12.98;;;4.32;;
801;SDS011;383;48.766;9.270;2024-03-06T04:59:33;6.38;;;4.82;;
801;SDS011;383;48.766;9.270;2024-03-06T05:02:01;5.90;;;4.00;;
801;SDS011;383;48.766;9.270;2024-03-06T05:04:28;9.00;;;4.05;;
801;SDS011;383;48.766;9.270;2024-03-06T05:06:55;5.80;;;3.95;;
801;SDS011;383;48.766;9.270;2024-03-06T05:09:22;11.65;;;5.05;;
801;SDS011;383;48.766;9.270;2024-03-06T05:11:49;7.82;;;4.55;;
801;SDS011;383;48.766;9.270;2024-03-06T05:14:17;7.15;;;4.85;;
801;SDS011;383;48.766;9.270;2024-03-06T05:16:45;9.27;;;4.13;;
801;SDS011;383;48.766;9.270;2024-03-06T05:19:12;7.68;;;4.22;;
801;SDS011;383;48.766;9.270;2024-03-06T05:21:39;9.88;;;4.57;;
801;SDS011;383;48.766;9.270;2024-03-06T05:24:06;8.45;;;4.80;;
801;SDS011;383;48.766;9.270;2024-03-06T05:26:33;5.63;;;4.50;;
801;SDS011;383;48.766;9.270;2024-03-06T05:29:00;8.68;;;4.68;;
801;SDS011;383;48.766;9.270;2024-03-06T05:31:29;8.30;;;5.07;;
801;SDS011;383;48.766;9.270;2024-03-06T05:33:57;9.95;;;3.90;;
801;SDS011;383;48.766;9.270;2024-03-06T05:36:25;7.65;;;4.20;;
801;SDS011;383;48.766;9.270;2024-03-06T05:38:53;7.75;;;4.20;;
801;SDS011;383;48.766;9.270;2024-03-06T05:41:20;9.30;;;4.22;;
801;SDS011;383;48.766;9.270;2024-03-06T05:43:47;11.13;;;4.55;;
801;SDS011;383;48.766;9.270;2024-03-06T05:46:14;7.43;;;4.90;;
801;SDS011;383;48.766;9.270;2024-03-06T05:48:42;6.53;;;5.05;;
801;SDS011;383;48.766;9.270;2024-03-06T05:51:09;7.63;;;4.43;;
801;SDS011;383;48.766;9.270;2024-03-06T05:53:36;11.15;;;5.18;;
801;SDS011;383;48.766;9.270;2024-03-06T05:56:06;11.95;;;5.18;;
801;SDS011;383;48.766;9.270;2024-03-06T05:58:33;12.90;;;5.20;;
801;SDS011;383;48.766;9.270;2024-03-06T06:01:00;14.27;;;5.47;;
801;SDS011;383;48.766;9.270;2024-03-06T06:03:28;15.38;;;5.88;;
801;SDS011;383;48.766;9.270;2024-03-06T06:05:57;7.75;;;4.50;;
801;SDS011;383;48.766;9.270;2024-03-06T06:08:24;9.65;;;5.28;;
801;SDS011;383;48.766;9.270;2024-03-06T06:10:51;11.55;;;5.35;;
801;SDS011;383;48.766;9.270;2024-03-06T06:13:19;14.48;;;5.97;;
801;SDS011;383;48.766;9.270;2024-03-06T06:15:47;9.18;;;4.63;;
801;SDS011;383;48.766;9.270;2024-03-06T06:18:14;10.90;;;5.53;;
801;SDS011;383;48.766;9.270;2024-03-06T06:20:41;11.80;;;6.72;;
801;SDS011;383;48.766;9.270;2024-03-06T06:23:09;10.05;;;5.18;;
801;SDS011;383;48.766;9.270;2024-03-06T06:25:36;11.50;;;5.78;;
801;SDS011;383;48.766;9.270;2024-03-06T06:28:03;7.03;;;3.88;;
801;SDS011;383;48.766;9.270;2024-03-06T06:30:31;16.02;;;5.30;;
801;SDS011;383;48.766;9.270;2024-03-06T06:32:58;8.38;;;4.80;;
801;SDS011;383;48.766;9.270;2024-03-06T06:35:25;15.23;;;6.38;;
801;SDS011;383;48.766;9.270;2024-03-06T06:37:52;9.38;;;5.20;;
801;SDS011;383;48.766;9.270;2024-03-06T06:40:20;12.60;;;5.60;;
801;SDS011;383;48.766;9.270;2024-03-06T06:42:48;13.98;;;4.85;;
801;SDS011;383;48.766;9.270;2024-03-06T06:45:16;8.88;;;5.50;;
801;SDS011;383;48.766;9.270;2024-03-06T06:47:43;9.73;;;4.68;;
801;SDS011;383;48.766;9.270;2024-03-06T06:50:10;15.52;;;6.82;;
801;SDS011;383;48.766;9.270;2024-03-06T06:52:37;14.80;;;5.57;;
801;SDS011;383;48.766;9.270;2024-03-06T06:55:05;13.23;;;5.03;;
801;SDS011;383;48.766;9.270;2024-03-06T06:57:35;8.63;;;4.57;;
801;SDS011;383;48.766;9.270;2024-03-06T07:00:03;12.13;;;5.03;;
801;SDS011;383;48.766;9.270;2024-03-06T07:02:35;10.48;;;5.60;;
801;SDS011;383;48.766;9.270;2024-03-06T07:05:03;9.45;;;4.40;;
801;SDS011;383;48.766;9.270;2024-03-06T07:07:30;10.57;;;5.85;;
801;SDS011;383;48.766;9.270;2024-03-06T07:09:57;7.22;;;5.15;;
801;SDS011;383;48.766;9.270;2024-03-06T07:12:24;12.57;;;4.93;;
801;SDS011;383;48.766;9.270;2024-03-06T07:14:53;11.35;;;5.20;;
801;SDS011;383;48.766;9.270;2024-03-06T07:17:20;11.15;;;5.25;;
801;SDS011;383;48.766;9.270;2024-03-06T07:19:47;8.20;;;4.93;;
801;SDS011;383;48.766;9.270;2024-03-06T07:22:14;10.93;;;5.53;;
801;SDS011;383;48.766;9.270;2024-03-06T07:24:41;10.43;;;4.53;;
801;SDS011;383;48.766;9.270;2024-03-06T07:27:08;12.13;;;5.72;;
801;SDS011;383;48.766;9.270;2024-03-06T07:29:36;11.00;;;5.65;;
801;SDS011;383;48.766;9.270;2024-03-06T07:32:04;12.57;;;4.75;;
801;SDS011;383;48.766;9.270;2024-03-06T07:34:32;9.75;;;5.38;;
801;SDS011;383;48.766;9.270;2024-03-06T07:36:59;11.38;;;5.63;;
801;SDS011;383;48.766;9.270;2024-03-06T07:39:26;11.38;;;4.63;;
801;SDS011;383;48.766;9.270;2024-03-06T07:41:56;13.65;;;5.47;;
801;SDS011;383;48.766;9.270;2024-03-06T07:44:23;10.68;;;4.55;;
801;SDS011;383;48.766;9.270;2024-03-06T07:46:50;10.23;;;5.40;;
801;SDS011;383;48.766;9.270;2024-03-06T07:49:20;8.40;;;4.97;;
801;SDS011;383;48.766;9.270;2024-03-06T07:51:47;15.93;;;5.60;;
801;SDS011;383;48.766;9.270;2024-03-06T07:54:14;9.73;;;5.57;;
801;SDS011;383;48.766;9.270;2024-03-06T07:56:41;13.82;;;5.55;;
801;SDS011;383;48.766;9.270;2024-03-06T07:59:08;10.23;;;5.22;;
801;SDS011;383;48.766;9.270;2024-03-06T08:01:37;16.08;;;5.38;;
801;SDS011;383;48.766;9.270;2024-03-06T08:04:05;18.70;;;5.20;;
801;SDS011;383;48.766;9.270;2024-03-06T08:06:33;12.32;;;4.95;;
801;SDS011;383;48.766;9.270;2024-03-06T08:09:02;11.23;;;5.43;;
801;SDS011;383;48.766;9.270;2024-03-06T08:11:29;10.65;;;5.38;;
801;SDS011;383;48.766;9.270;2024-03-06T08:13:57;10.77;;;4.93;;
801;SDS011;383;48.766;9.270;2024-03-06T08:16:24;14.38;;;5.78;;
801;SDS011;383;48.766;9.270;2024-03-06T08:18:51;14.15;;;6.40;;
801;SDS011;383;48.766;9.270;2024-03-06T08:21:18;12.35;;;5.90;;
801;SDS011;383;48.766;9.270;2024-03-06T08:23:47;10.23;;;5.30;;
801;SDS011;383;48.766;9.270;2024-03-06T08:26:14;12.02;;;6.40;;
801;SDS011;383;48.766;9.270;2024-03-06T08:28:41;10.60;;;4.97;;
801;SDS011;383;48.766;9.270;2024-03-06T08:31:08;8.23;;;4.93;;
801;SDS011;383;48.766;9.270;2024-03-06T08:33:35;18.65;;;6.32;;
801;SDS011;383;48.766;9.270;2024-03-06T08:36:02;10.52;;;4.82;;
801;SDS011;383;48.766;9.270;2024-03-06T08:38:29;14.65;;;6.40;;
801;SDS011;383;48.766;9.270;2024-03-06T08:40:58;10.13;;;5.38;;
801;SDS011;383;48.766;9.270;2024-03-06T08:43:25;9.60;;;5.57;;
801;SDS011;383;48.766;9.270;2024-03-06T08:45:52;10.63;;;5.57;;
801;SDS011;383;48.766;9.270;2024-03-06T08:48:19;8.35;;;5.43;;
801;SDS011;383;48.766;9.270;2024-03-06T08:50:46;8.65;;;5.10;;
801;SDS011;383;48.766;9.270;2024-03-06T08:53:13;10.55;;;5.35;;
801;SDS011;383;48.766;9.270;2024-03-06T08:55:40;12.75;;;4.80;;
801;SDS011;383;48.766;9.270;2024-03-06T08:58:08;13.93;;;5.18;;
801;SDS011;383;48.766;9.270;2024-03-06T09:00:35;13.15;;;5.20;;
801;SDS011;383;48.766;9.270;2024-03-06T09:03:03;7.88;;;5.18;;
801;SDS011;383;48.766;9.270;2024-03-06T09:05:30;8.48;;;5.43;;
801;SDS011;383;48.766;9.270;2024-03-06T09:07:57;8.30;;;4.88;;
801;SDS011;383;48.766;9.270;2024-03-06T09:10:24;10.13;;;5.10;;
801;SDS011;383;48.766;9.270;2024-03-06T09:12:51;10.65;;;5.13;;
801;SDS011;383;48.766;9.270;2024-03-06T09:15:19;11.93;;;5.90;;
801;SDS011;383;48.766;9.270;2024-03-06T09:17:46;14.30;;;6.00;;
801;SDS011;383;48.766;9.270;2024-03-06T09:20:13;10.63;;;5.80;;
801;SDS011;383;48.766;9.270;2024-03-06T09:22:42;10.65;;;5.80;;
801;SDS011;383;48.766;9.270;2024-03-06T09:25:09;13.75;;;5.85;;
801;SDS011;383;48.766;9.270;2024-03-06T09:27:38;11.65;;;5.38;;
801;SDS011;383;48.766;9.270;2024-03-06T09:30:26;24.05;;;7.43;;
801;SDS011;383;48.766;9.270;2024-03-06T09:32:57;17.40;;;6.55;;
801;SDS011;383;48.766;9.270;2024-03-06T09:35:24;12.60;;;6.40;;
801;SDS011;383;48.766;9.270;2024-03-06T09:37:51;13.27;;;6.57;;
801;SDS011;383;48.766;9.270;2024-03-06T09:40:21;13.80;;;6.47;;
801;SDS011;383;48.766;9.270;2024-03-06T09:42:49;16.30;;;6.80;;
801;SDS011;383;48.766;9.270;2024-03-06T09:45:16;14.68;;;6.65;;
801;SDS011;383;48.766;9.270;2024-03-06T09:47:44;9.70;;;5.03;;
801;SDS011;383;48.766;9.270;2024-03-06T09:50:13;17.70;;;7.13;;
801;SDS011;383;48.766;9.270;2024-03-06T09:52:45;10.73;;;6.57;;
801;SDS011;383;48.766;9.270;2024-03-06T09:55:13;14.40;;;6.70;;
801;SDS011;383;48.766;9.270;2024-03-06T09:57:40;11.93;;;7.70;;
801;SDS011;383;48.766;9.270;2024-03-06T10:00:08;14.65;;;7.22;;
801;SDS011;383;48.766;9.270;2024-03-06T10:02:37;13.10;;;6.75;;
801;SDS011;383;48.766;9.270;2024-03-06T10:05:05;15.45;;;6.78;;
801;SDS011;383;48.766;9.270;2024-03-06T10:07:34;13.93;;;6.47;;
801;SDS011;383;48.766;9.270;2024-03-06T10:10:01;12.60;;;6.45;;
801;SDS011;383;48.766;9.270;2024-03-06T10:12:28;12.77;;;6.80;;
801;SDS011;383;48.766;9.270;2024-03-06T10:14:55;16.67;;;7.45;;
801;SDS011;383;48.766;9.270;2024-03-06T10:17:22;20.35;;;7.78;;
801;SDS011;383;48.766;9.270;2024-03-06T10:19:51;12.95;;;7.35;;
801;SDS011;383;48.766;9.270;2024-03-06T10:22:19;17.50;;;8.35;;
801;SDS011;383;48.766;9.270;2024-03-06T10:24:47;17.38;;;8.75;;
801;SDS011;383;48.766;9.270;2024-03-06T10:27:15;24.13;;;8.93;;
801;SDS011;383;48.766;9.270;2024-03-06T10:29:43;20.95;;;7.85;;
801;SDS011;383;48.766;9.270;2024-03-06T10:32:10;17.80;;;9.75;;
801;SDS011;383;48.766;9.270;2024-03-06T10:34:37;15.85;;;9.27;;
801;SDS011;383;48.766;9.270;2024-03-06T10:37:05;23.52;;;10.82;;
801;SDS011;383;48.766;9.270;2024-03-06T10:39:33;22.17;;;11.35;;
801;SDS011;383;48.766;9.270;2024-03-06T10:42:03;21.48;;;10.00;;
801;SDS011;383;48.766;9.270;2024-03-06T10:44:30;21.83;;;9.57;;
801;SDS011;383;48.766;9.270;2024-03-06T10:46:59;21.33;;;10.02;;
801;SDS011;383;48.766;9.270;2024-03-06T10:49:26;18.38;;;9.85;;
801;SDS011;383;48.766;9.270;2024-03-06T10:51:54;21.65;;;10.82;;
801;SDS011;383;48.766;9.270;2024-03-06T10:54:25;18.00;;;10.23;;
801;SDS011;383;48.766;9.270;2024-03-06T10:56:53;18.58;;;10.43;;
801;SDS011;383;48.766;9.270;2024-03-06T10:59:22;22.23;;;11.10;;
801;SDS011;383;48.766;9.270;2024-03-06T11:01:52;19.30;;;9.95;;
801;SDS011;383;48.766;9.270;2024-03-06T11:04:20;24.48;;;10.70;;
801;SDS011;383;48.766;9.270;2024-03-06T11:06:48;26.92;;;11.10;;
801;SDS011;383;48.766;9.270;2024-03-06T11:09:15;22.52;;;11.48;;
801;SDS011;383;48.766;9.270;2024-03-06T11:11:48;22.33;;;10.77;;
801;SDS011;383;48.766;9.270;2024-03-06T11:14:16;30.42;;;12.20;;
801;SDS011;383;48.766;9.270;2024-03-06T11:16:57;25.60;;;12.15;;
801;SDS011;383;48.766;9.270;2024-03-06T11:19:25;23.38;;;10.88;;
801;SDS011;383;48.766;9.270;2024-03-06T11:21:52;23.75;;;13.00;;
801;SDS011;383;48.766;9.270;2024-03-06T11:24:20;32.33;;;13.15;;
801;SDS011;383;48.766;9.270;2024-03-06T11:26:50;27.33;;;11.93;;
801;SDS011;383;48.766;9.270;2024-03-06T11:29:23;25.33;;;12.85;;
801;SDS011;383;48.766;9.270;2024-03-06T11:32:06;26.23;;;13.27;;
801;SDS011;383;48.766;9.270;2024-03-06T11:34:34;24.83;;;11.65;;
801;SDS011;383;48.766;9.270;2024-03-06T11:37:05;35.33;;;13.70;;
801;SDS011;383;48.766;9.270;2024-03-06T11:39:34;31.00;;;14.18;;
801;SDS011;383;48.766;9.270;2024-03-06T11:42:02;35.25;;;15.43;;
801;SDS011;383;48.766;9.270;2024-03-06T11:44:29;28.63;;;13.82;;
801;SDS011;383;48.766;9.270;2024-03-06T11:46:57;34.28;;;14.40;;
801;SDS011;383;48.766;9.270;2024-03-06T11:49:26;32.55;;;14.98;;
801;SDS011;383;48.766;9.270;2024-03-06T11:51:54;32.35;;;13.57;;
801;SDS011;383;48.766;9.270;2024-03-06T11:54:22;33.75;;;12.82;;
801;SDS011;383;48.766;9.270;2024-03-06T11:56:51;31.55;;;14.48;;
801;SDS011;383;48.766;9.270;2024-03-06T11:59:20;35.20;;;15.00;;
801;SDS011;383;48.766;9.270;2024-03-06T12:01:47;25.27;;;13.52;;
801;SDS011;383;48.766;9.270;2024-03-06T12:04:14;32.53;;;16.00;;
801;SDS011;383;48.766;9.270;2024-03-06T12:06:43;33.10;;;14.52;;
801;SDS011;383;48.766;9.270;2024-03-06T12:09:10;35.20;;;15.18;;
801;SDS011;383;48.766;9.270;2024-03-06T12:11:37;30.17;;;15.25;;
801;SDS011;383;48.766;9.270;2024-03-06T12:14:04;35.03;;;15.60;;
801;SDS011;383;48.766;9.270;2024-03-06T12:16:31;37.15;;;16.50;;
801;SDS011;383;48.766;9.270;2024-03-06T12:18:58;37.78;;;16.00;;
801;SDS011;383;48.766;9.270;2024-03-06T12:21:27;35.45;;;15.70;;
801;SDS011;383;48.766;9.270;2024-03-06T12:24:03;35.90;;;16.75;;
801;SDS011;383;48.766;9.270;2024-03-06T12:26:30;33.22;;;14.68;;
801;SDS011;383;48.766;9.270;2024-03-06T12:29:04;34.13;;;15.30;;
801;SDS011;383;48.766;9.270;2024-03-06T12:31:31;34.40;;;15.80;;
801;SDS011;383;48.766;9.270;2024-03-06T12:33:59;30.55;;;13.68;;
801;SDS011;383;48.766;9.270;2024-03-06T12:36:28;33.00;;;14.15;;
801;SDS011;383;48.766;9.270;2024-03-06T12:38:56;42.80;;;18.23;;
801;SDS011;383;48.766;9.270;2024-03-06T12:41:24;36.78;;;15.35;;
801;SDS011;383;48.766;9.270;2024-03-06T12:43:52;32.47;;;15.82;;
801;SDS011;383;48.766;9.270;2024-03-06T12:46:20;36.63;;;16.10;;
801;SDS011;383;48.766;9.270;2024-03-06T12:48:47;38.55;;;17.90;;
801;SDS011;383;48.766;9.270;2024-03-06T12:51:14;32.72;;;14.57;;
801;SDS011;383;48.766;9.270;2024-03-06T12:53:41;34.22;;;15.52;;
801;SDS011;383;48.766;9.270;2024-03-06T12:56:08;31.67;;;15.65;;
801;SDS011;383;48.766;9.270;2024-03-06T12:58:37;38.33;;;15.50;;
801;SDS011;383;48.766;9.270;2024-03-06T13:01:04;38.30;;;15.10;;
801;SDS011;383;48.766;9.270;2024-03-06T13:03:31;29.35;;;13.45;;
801;SDS011;383;48.766;9.270;2024-03-06T13:05:58;39.63;;;16.70;;
801;SDS011;383;48.766;9.270;2024-03-06T13:08:25;34.70;;;15.10;;
801;SDS011;383;48.766;9.270;2024-03-06T13:10:52;30.05;;;14.43;;
801;SDS011;383;48.766;9.270;2024-03-06T13:13:21;35.17;;;13.88;;
801;SDS011;383;48.766;9.270;2024-03-06T13:15:51;27.50;;;13.98;;
801;SDS011;383;48.766;9.270;2024-03-06T13:18:18;35.55;;;14.60;;
801;SDS011;383;48.766;9.270;2024-03-06T13:20:45;33.10;;;13.95;;
801;SDS011;383;48.766;9.270;2024-03-06T13:23:12;35.10;;;15.13;;
801;SDS011;383;48.766;9.270;2024-03-06T13:25:39;38.60;;;16.38;;
801;SDS011;383;48.766;9.270;2024-03-06T13:28:07;37.22;;;16.33;;
801;SDS011;383;48.766;9.270;2024-03-06T13:30:34;44.47;;;15.60;;
801;SDS011;383;48.766;9.270;2024-03-06T13:33:04;35.75;;;15.45;;
801;SDS011;383;48.766;9.270;2024-03-06T13:35:32;37.83;;;15.38;;
801;SDS011;383;48.766;9.270;2024-03-06T13:37:59;38.55;;;14.85;;
801;SDS011;383;48.766;9.270;2024-03-06T13:40:28;45.13;;;17.50;;
801;SDS011;383;48.766;9.270;2024-03-06T13:42:55;38.88;;;16.05;;
801;SDS011;383;48.766;9.270;2024-03-06T13:45:22;39.42;;;16.08;;
801;SDS011;383;48.766;9.270;2024-03-06T13:47:49;38.90;;;15.40;;
801;SDS011;383;48.766;9.270;2024-03-06T13:50:18;35.42;;;18.00;;
801;SDS011;383;48.766;9.270;2024-03-06T13:52:46;34.60;;;15.18;;
801;SDS011;383;48.766;9.270;2024-03-06T13:55:13;38.15;;;15.63;;
801;SDS011;383;48.766;9.270;2024-03-06T13:57:40;38.88;;;16.90;;
801;SDS011;383;48.766;9.270;2024-03-06T14:00:08;51.10;;;20.73;;
801;SDS011;383;48.766;9.270;2024-03-06T14:02:42;40.10;;;16.30;;
801;SDS011;383;48.766;9.270;2024-03-06T14:05:09;40.53;;;17.05;;
801;SDS011;383;48.766;9.270;2024-03-06T14:07:37;37.75;;;16.10;;
801;SDS011;383;48.766;9.270;2024-03-06T14:10:06;41.95;;;17.60;;
801;SDS011;383;48.766;9.270;2024-03-06T14:12:33;41.75;;;17.65;;
801;SDS011;383;48.766;9.270;2024-03-06T14:15:00;40.15;;;17.08;;
801;SDS011;383;48.766;9.270;2024-03-06T14:17:27;50.85;;;18.10;;
801;SDS011;383;48.766;9.270;2024-03-06T14:19:55;37.85;;;18.05;;
801;SDS011;383;48.766;9.270;2024-03-06T14:22:22;41.40;;;17.27;;
801;SDS011;383;48.766;9.270;2024-03-06T14:24:50;47.38;;;20.58;;
801;SDS011;383;48.766;9.270;2024-03-06T14:27:17;41.70;;;17.20;;
801;SDS011;383;48.766;9.270;2024-03-06T14:29:44;47.05;;;17.52;;
801;SDS011;383;48.766;9.270;2024-03-06T14:32:11;44.90;;;18.10;;
801;SDS011;383;48.766;9.270;2024-03-06T14:34:38;51.25;;;19.13;;
801;SDS011;383;48.766;9.270;2024-03-06T14:37:05;42.22;;;16.00;;
801;SDS011;383;48.766;9.270;2024-03-06T14:39:32;38.08;;;15.75;;
801;SDS011;383;48.766;9.270;2024-03-06T14:42:01;38.15;;;16.00;;
801;SDS011;383;48.766;9.270;2024-03-06T14:44:29;41.47;;;17.70;;
801;SDS011;383;48.766;9.270;2024-03-06T14:46:56;33.67;;;14.40;;
801;SDS011;383;48.766;9.270;2024-03-06T14:49:23;35.63;;;15.55;;
801;SDS011;383;48.766;9.270;2024-03-06T14:51:50;32.92;;;15.90;;
801;SDS011;383;48.766;9.270;2024-03-06T14:54:18;34.60;;;15.18;;
801;SDS011;383;48.766;9.270;2024-03-06T14:56:45;34.67;;;15.20;;
801;SDS011;383;48.766;9.270;2024-03-06T14:59:13;43.55;;;16.83;;
801;SDS011;383;48.766;9.270;2024-03-06T15:01:40;39.50;;;15.15;;
801;SDS011;383;48.766;9.270;2024-03-06T15:04:07;34.13;;;13.77;;
801;SDS011;383;48.766;9.270;2024-03-06T15:06:34;34.53;;;15.02;;
801;SDS011;383;48.766;9.270;2024-03-06T15:09:01;31.05;;;13.50;;
801;SDS011;383;48.766;9.270;2024-03-06T15:11:29;29.15;;;14.18;;
801;SDS011;383;48.766;9.270;2024-03-06T15:13:58;33.45;;;14.82;;
801;SDS011;383;48.766;9.270;2024-03-06T15:16:26;32.30;;;14.30;;
801;SDS011;383;48.766;9.270;2024-03-06T15:18:53;38.22;;;16.52;;
801;SDS011;383;48.766;9.270;2024-03-06T15:21:22;38.88;;;14.20;;
801;SDS011;383;48.766;9.270;2024-03-06T15:23:49;30.90;;;13.77;;
801;SDS011;383;48.766;9.270;2024-03-06T15:26:17;39.78;;;14.55;;
801;SDS011;383;48.766;9.270;2024-03-06T15:28:44;33.15;;;15.07;;
801;SDS011;383;48.766;9.270;2024-03-06T15:31:11;33.53;;;15.98;;
801;SDS011;383;48.766;9.270;2024-03-06T15:33:40;31.75;;;13.73;;